Flight Track Log - Related Links

Times and Time Zones

All times are in EST time to prevent confusion due to time zone crossing. See the N472ER flight status page for this flight to view local times or setup timezone preferences in your user account.

Time Position Orientation Groundspeed Altitude Reporting Facility
EST Latitude Longitude Course Direction KTS MPH feet Rate Location/Type
Tue 07:11:27 PM 30.8700 -81.4500 181° South 115 132 6,000  Level Jacksonville Center
Tue 07:11:38 PM 30.8617 -81.4478 167° South 110 127 6,000 -100 Level Jacksonville Center
Tue 07:12:27 PM 30.8389 -81.4553 196° South 115 132 5,900 -100 Descending Jacksonville Center
Tue 07:12:38 PM 30.8325 -81.4556 182° South 110 127 5,900  Level Jacksonville Center
Tue 07:13:00 PM 30.9803 -81.3615 171° South  Level Estimated
Tue 07:13:27 PM 30.8075 -81.4608 190° South 115 132 5,900  Level Jacksonville Center
Tue 07:13:39 PM 30.7992 -81.4583 166° South 111 128 6,000  Climbing Jacksonville Center
Tue 07:14:00 PM 30.9514 -81.3620 181° South  Level FlightAware Approximate
Tue 07:14:27 PM 30.7783 -81.4611 187° South 115 132 5,900  Level Jacksonville Center
Tue 07:14:40 PM 30.7681 -81.4636 192° South 112 129 6,000  Climbing Jacksonville Center
Tue 07:15:00 PM 30.9225 -81.3625 181° South  Level FlightAware Approximate
Tue 07:15:27 PM 30.7450 -81.4664 186° South 115 132 5,900  Level Jacksonville Center
Tue 07:15:40 PM 30.7389 -81.4667 182° South 113 130 6,000  Climbing Jacksonville Center
Tue 07:16:00 PM 30.8936 -81.3630 181° South  Level FlightAware Approximate
Tue 07:16:27 PM 30.7136 -81.4694 185° South 115 132 5,900  Level Jacksonville Center
Tue 07:16:35 PM 30.7094 -81.4719 207° Southwest 112 129 5,900  Level Jacksonville Center
Tue 07:17:27 PM 30.6825 -81.4747 185° South 115 132 5,900 98 Level Jacksonville Center
Tue 07:17:36 PM 30.6803 -81.4722 136° Southeast 110 127 6,000  Climbing Jacksonville Center
Tue 07:18:27 PM 30.6533 -81.4775 190° South 115 132 5,900  Descending Jacksonville Center
Tue 07:18:37 PM 30.6469 -81.4775 180° South 108 124 6,000  Climbing Jacksonville Center
Tue 07:19:27 PM 30.6219 -81.4803 185° South 115 132 5,900  Descending Jacksonville Center
Tue 07:19:38 PM 30.6158 -81.4806 182° South 111 128 6,000  Climbing Jacksonville Center
Tue 07:20:27 PM 30.5906 -81.4833 185° South 115 132 5,900  Descending Jacksonville Center
Tue 07:20:45 PM 30.5803 -81.4833 180° South 111 128 6,000  Climbing Jacksonville Center
Tue 07:21:27 PM 30.5594 -81.4861 187° South 115 132 5,900  Descending Jacksonville Center
Tue 07:21:45 PM 30.5489 -81.4911 202° Southwest 111 128 6,000 76 Climbing Jacksonville Center
Tue 07:22:46 PM 30.5178 -81.4939 184° South 113 130 6,000  Level Jacksonville Center
Tue 07:23:47 PM 30.4864 -81.4969 185° South 111 128 6,000 -49 Level Jacksonville Center
Tue 07:24:48 PM 30.4572 -81.4997 185° South 107 123 5,900 -49 Descending Jacksonville Center
Tue 07:25:49 PM 30.4281 -81.5025 185° South 110 127 5,900  Level Jacksonville Center
Tue 07:26:56 PM 30.3906 -81.5078 187° South 108 124 5,900 49 Level Jacksonville Center
Tue 07:27:51 PM 30.3656 -81.5106 185° South 105 121 6,000 52 Climbing Jacksonville Center
Tue 07:28:52 PM 30.3364 -81.5136 185° South 106 122 6,000 -52 Level Jacksonville Center
Tue 07:29:46 PM 30.3069 -81.5042 165° South 119 137 5,900 -52 Descending Jacksonville Center
Tue 07:30:47 PM 30.2775 -81.4878 154° Southeast 118 136 5,900  Level Jacksonville Center
Tue 07:31:48 PM 30.2442 -81.4786 167° South 118 136 5,900  Level Jacksonville Center
Tue 07:32:43 PM 30.2211 -81.4694 161° South 114 131 5,900 52 Level Jacksonville Center
Tue 07:33:43 PM 30.1875 -81.4581 164° South 119 137 6,000 50 Climbing Jacksonville Center
Tue 07:34:44 PM 30.1581 -81.4439 157° South 119 137 6,000  Level Jacksonville Center
Tue 07:35:46 PM 30.1244 -81.4325 164° South 117 135 6,000  Level Jacksonville Center
Tue 07:36:46 PM 30.0931 -81.4186 159° South 116 133 6,000 -50 Level Jacksonville Center
Tue 07:37:47 PM 30.0617 -81.4094 166° South 118 136 5,900  Descending Jacksonville Center
Tue 07:38:48 PM 30.0303 -81.3978 162° South 118 136 6,000 50 Climbing Jacksonville Center
Tue 07:39:48 PM 29.9989 -81.3889 166° South 116 133 6,000  Level Jacksonville Center
Tue 07:40:25 PM 29.9778 -81.3819 164° South 116 133 6,000  Level Jacksonville Center
Tue 07:41:32 PM 29.9464 -81.3656 156° South 119 137 6,000  Level Jacksonville Center
Tue 07:42:27 PM 29.9189 -81.3492 153° Southeast 118 136 6,000 -50 Level Jacksonville Center
Tue 07:43:33 PM 29.8856 -81.3403 167° South 113 130 5,900 -52 Descending Jacksonville Center
Tue 07:44:22 PM 29.8603 -81.3311 163° South 117 135 5,900  Level Jacksonville Center
Tue 07:45:22 PM 29.8308 -81.3172 158° South 119 137 5,900 -198 Level Jacksonville Center
Tue 07:46:23 PM 29.7994 -81.3033 159° South 119 137 5,500 -516 Descending Jacksonville Center
Tue 07:47:30 PM 29.7656 -81.2728 142° Southeast 128 147 4,800 -632 Descending Jacksonville Center
Tue 07:48:36 PM 29.7297 -81.2519 153° Southeast 131 151 4,100 -378 Descending Jacksonville Center
Tue 07:49:37 PM 29.7025 -81.2308 146° Southeast 121 139 4,000 -248 Descending Jacksonville Center
Tue 07:50:37 PM 29.6750 -81.2122 150° Southeast 139 160 3,600 -522 Descending Jacksonville Center
Tue 07:51:32 PM 29.6436 -81.1958 156° South 137 158 3,000 -724 Descending Jacksonville Center
Tue 07:52:33 PM 29.6078 -81.1822 162° South 134 154 2,200 -545 Descending Jacksonville Center
Tue 07:53:33 PM 29.5764 -81.1683 159° South 127 146 1,900 -99 Descending Jacksonville Center
Tue 07:54:34 PM 29.5408 -81.1547 162° South 121 139 2,000 49 Climbing Jacksonville Center
Tue 07:55:35 PM 29.5072 -81.1433 164° South 124 143 2,000 -149 Level Jacksonville Center
Tue 07:56:35 PM 29.4736 -81.1297 161° South 131 151 1,700 -198 Descending Jacksonville Center
Tue 07:57:36 PM 29.4378 -81.1136 159° South 131 151 1,600 -52 Descending Jacksonville Center
Tue 07:58:30 PM 29.4106 -81.1000 156° South 124 143 1,600  Level Jacksonville Center
Tue 07:59:31 PM 29.3750 -81.0886 164° South 131 151 1,600  Level Jacksonville Center
Tue 08:00:32 PM 29.3392 -81.0750 162° South 127 146 1,600 -50 Level Jacksonville Center
Tue 08:01:32 PM 29.3097 -81.0589 154° Southeast 125 144 1,500  Descending Jacksonville Center
Tue 08:02:33 PM 29.2761 -81.0428 157° South 126 145 1,600 49 Climbing Jacksonville Center
Tue 08:03:34 PM 29.2467 -81.0267 154° Southeast 123 142 1,600 -50 Level Jacksonville Center
Tue 08:04:34 PM 29.2111 -81.0131 162° South 125 144 1,500  Descending Jacksonville Center
Tue 08:05:41 PM 29.1753 -80.9925 153° Southeast 125 144 1,600 45 Climbing Jacksonville Center
Tue 08:06:48 PM 29.1436 -80.9764 156° South 120 138 1,600 -47 Level Jacksonville Center
Tue 08:07:48 PM 29.1100 -80.9603 157° South 124 143 1,500  Descending Jacksonville Center
Tue 08:08:49 PM 29.0808 -80.9561 173° South 102 117 1,600 49 Climbing Jacksonville Center
Tue 08:09:50 PM 29.0708 -80.9872 250° West 102 117 1,600  Level Jacksonville Center
Tue 08:10:51 PM 29.0897 -81.0083 316° Northwest 90 104 1,600 -149 Level Jacksonville Center
Tue 08:11:51 PM 29.1108 -81.0222 330° Northwest 96 110 1,300 -347 Descending Jacksonville Center
Tue 08:12:52 PM 29.1319 -81.0311 340° North 82 94 900 -378 Descending Jacksonville Center
Tue 08:13:58 PM 29.1508 -81.0403 337° Northwest 61 70 500 -364 Descending Jacksonville Center
Tue 08:15:00 PM 29.1667 -81.0500 307° West  Level FlightAware Approximate
Tue 08:22:00 PM 29.1799 -81.0581 307° West  Level Estimated
Tue 08:23:00 PM 29.1799 -81.0581 307° West  Level Estimated
Tue 08:24:00 PM 29.1799 -81.0581 307° West  Level Estimated
Tue 08:25:00 PM 29.1799 -81.0581 307° West  Level Estimated

Login

Don't have an account? Register now (free) for customized features, flight alerts, and more!